sensor_id;sensor_type;location;lat;lon;timestamp;pressure;altitude;pressure_sealevel;temperature;humidity
65359;BME280;52491;45.900;6.346;2023-04-01T00:00:06;93326.09;;;22.82;32.63
65359;BME280;52491;45.900;6.346;2023-04-01T00:02:32;93336.72;;;22.82;32.73
65359;BME280;52491;45.900;6.346;2023-04-01T00:04:57;93354.53;;;22.82;32.21
65359;BME280;52491;45.900;6.346;2023-04-01T00:07:23;93357.19;;;22.82;32.68
65359;BME280;52491;45.900;6.346;2023-04-01T00:09:48;93352.66;;;22.82;32.54
65359;BME280;52491;45.900;6.346;2023-04-01T00:12:14;93351.88;;;22.82;32.66
65359;BME280;52491;45.900;6.346;2023-04-01T00:14:40;93349.22;;;22.82;32.66
65359;BME280;52491;45.900;6.346;2023-04-01T00:17:05;93330.63;;;22.82;32.63
65359;BME280;52491;45.900;6.346;2023-04-01T00:19:31;93327.97;;;22.82;32.55
65359;BME280;52491;45.900;6.346;2023-04-01T00:21:58;93326.91;;;22.83;32.46
65359;BME280;52491;45.900;6.346;2023-04-01T00:24:23;93320.53;;;22.84;32.33
65359;BME280;52491;45.900;6.346;2023-04-01T00:26:49;93319.44;;;22.85;32.15
65359;BME280;52491;45.900;6.346;2023-04-01T00:29:14;93318.66;;;22.84;32.33
65359;BME280;52491;45.900;6.346;2023-04-01T00:31:40;93329.28;;;22.84;32.32
65359;BME280;52491;45.900;6.346;2023-04-01T00:34:05;93325.84;;;22.84;32.33
65359;BME280;52491;45.900;6.346;2023-04-01T00:36:31;93321.31;;;22.84;32.31
65359;BME280;52491;45.900;6.346;2023-04-01T00:38:57;93332.75;;;22.85;32.19
65359;BME280;52491;45.900;6.346;2023-04-01T00:41:24;93328.75;;;22.82;32.16
65359;BME280;52491;45.900;6.346;2023-04-01T00:43:51;93325.31;;;22.82;32.28
65359;BME280;52491;45.900;6.346;2023-04-01T00:46:18;93324.25;;;22.83;32.20
65359;BME280;52491;45.900;6.346;2023-04-01T00:48:51;93346.59;;;23.07;31.92
65359;BME280;52491;45.900;6.346;2023-04-01T00:51:27;93357.47;;;23.16;31.65
65359;BME280;52491;45.900;6.346;2023-04-01T00:53:55;93353.50;;;23.18;31.53
65359;BME280;52491;45.900;6.346;2023-04-01T00:56:27;93352.44;;;23.19;31.56
65359;BME280;52491;45.900;6.346;2023-04-01T00:59:01;93343.38;;;23.20;31.44
65359;BME280;52491;45.900;6.346;2023-04-01T01:01:30;93343.13;;;23.22;31.42
65359;BME280;52491;45.900;6.346;2023-04-01T01:03:56;93339.41;;;23.23;31.43
65359;BME280;52491;45.900;6.346;2023-04-01T01:11:50;93344.72;;;23.23;31.35
65359;BME280;52491;45.900;6.346;2023-04-01T01:14:24;93329.56;;;23.23;31.45
65359;BME280;52491;45.900;6.346;2023-04-01T01:16:59;93329.56;;;23.23;31.50
65359;BME280;52491;45.900;6.346;2023-04-01T01:22:36;93324.22;;;23.23;31.40
65359;BME280;52491;45.900;6.346;2023-04-01T01:30:42;93326.91;;;23.23;31.22
65359;BME280;52491;45.900;6.346;2023-04-01T01:33:17;93339.41;;;23.23;31.29
65359;BME280;52491;45.900;6.346;2023-04-01T01:35:49;93358.81;;;23.23;31.33
65359;BME280;52491;45.900;6.346;2023-04-01T01:38:18;93362.25;;;23.24;31.12
65359;BME280;52491;45.900;6.346;2023-04-01T01:40:49;93360.41;;;23.24;31.33
65359;BME280;52491;45.900;6.346;2023-04-01T01:43:25;93346.31;;;23.24;31.07
65359;BME280;52491;45.900;6.346;2023-04-01T01:45:54;93368.38;;;23.24;31.11
65359;BME280;52491;45.900;6.346;2023-04-01T01:48:23;93359.59;;;23.24;31.15
65359;BME280;52491;45.900;6.346;2023-04-01T01:50:51;93367.56;;;23.24;31.10
65359;BME280;52491;45.900;6.346;2023-04-01T01:53:17;93362.25;;;23.24;30.94
65359;BME280;52491;45.900;6.346;2023-04-01T01:55:45;93350.56;;;23.25;30.93
65359;BME280;52491;45.900;6.346;2023-04-01T01:58:27;93368.38;;;23.24;30.86
65359;BME280;52491;45.900;6.346;2023-04-01T02:00:57;93358.56;;;23.25;30.97
65359;BME280;52491;45.900;6.346;2023-04-01T02:03:25;93342.59;;;23.25;31.34
65359;BME280;52491;45.900;6.346;2023-04-01T02:05:55;93366.53;;;23.25;31.11
65359;BME280;52491;45.900;6.346;2023-04-01T02:08:29;93366.53;;;23.25;30.80
65359;BME280;52491;45.900;6.346;2023-04-01T02:11:02;93369.97;;;23.26;30.91
65359;BME280;52491;45.900;6.346;2023-04-01T02:13:54;93356.69;;;23.26;30.87
65359;BME280;52491;45.900;6.346;2023-04-01T02:16:43;93362.25;;;23.24;30.93
65359;BME280;52491;45.900;6.346;2023-04-01T02:19:13;93362.25;;;23.24;30.93
65359;BME280;52491;45.900;6.346;2023-04-01T02:21:40;93360.69;;;23.23;30.89
65359;BME280;52491;45.900;6.346;2023-04-01T02:24:11;93358.81;;;23.23;30.89
65359;BME280;52491;45.900;6.346;2023-04-01T02:26:38;93356.16;;;23.23;30.81
65359;BME280;52491;45.900;6.346;2023-04-01T02:29:05;93356.16;;;23.23;30.99
65359;BME280;52491;45.900;6.346;2023-04-01T02:31:32;93353.50;;;23.23;30.93
65359;BME280;52491;45.900;6.346;2023-04-01T02:33:58;93350.56;;;23.25;30.80
65359;BME280;52491;45.900;6.346;2023-04-01T02:36:24;93344.72;;;23.23;30.82
65359;BME280;52491;45.900;6.346;2023-04-01T02:38:51;93348.72;;;23.26;30.86
65359;BME280;52491;45.900;6.346;2023-04-01T02:41:21;93347.09;;;23.24;30.81
65359;BME280;52491;45.900;6.346;2023-04-01T02:43:47;93338.31;;;23.24;30.83
65359;BME280;52491;45.900;6.346;2023-04-01T02:46:14;93340.19;;;23.23;30.83
65359;BME280;52491;45.900;6.346;2023-04-01T02:48:39;93335.66;;;23.24;30.89
65359;BME280;52491;45.900;6.346;2023-04-01T02:51:05;93332.75;;;23.26;30.85
65359;BME280;52491;45.900;6.346;2023-04-01T02:53:31;93334.63;;;23.25;30.87
65359;BME280;52491;45.900;6.346;2023-04-01T02:55:56;93328.47;;;23.24;31.04
65359;BME280;52491;45.900;6.346;2023-04-01T02:58:22;93314.38;;;23.24;31.28
65359;BME280;52491;45.900;6.346;2023-04-01T03:00:48;93309.88;;;23.24;31.27
65359;BME280;52491;45.900;6.346;2023-04-01T03:03:14;93293.91;;;23.24;31.28
65359;BME280;52491;45.900;6.346;2023-04-01T03:05:40;93293.13;;;23.24;31.37
65359;BME280;52491;45.900;6.346;2023-04-01T03:08:06;93290.75;;;23.22;31.57
65359;BME280;52491;45.900;6.346;2023-04-01T03:10:32;93298.44;;;23.24;31.37
65359;BME280;52491;45.900;6.346;2023-04-01T03:12:58;93298.97;;;23.26;31.31
65359;BME280;52491;45.900;6.346;2023-04-01T03:15:23;93300.28;;;23.29;31.50
65359;BME280;52491;45.900;6.346;2023-04-01T03:17:49;93294.72;;;23.30;31.49
65359;BME280;52491;45.900;6.346;2023-04-01T03:20:15;93309.59;;;23.31;31.35
65359;BME280;52491;45.900;6.346;2023-04-01T03:22:41;93315.19;;;23.30;31.43
65359;BME280;52491;45.900;6.346;2023-04-01T03:25:07;93318.66;;;23.30;31.27
65359;BME280;52491;45.900;6.346;2023-04-01T03:27:34;93312.53;;;23.30;31.18
65359;BME280;52491;45.900;6.346;2023-04-01T03:30:01;93317.03;;;23.29;31.30
65359;BME280;52491;45.900;6.346;2023-04-01T03:32:27;93312.53;;;23.30;31.33
65359;BME280;52491;45.900;6.346;2023-04-01T03:34:53;93309.59;;;23.31;31.23
65359;BME280;52491;45.900;6.346;2023-04-01T03:37:19;93311.72;;;23.34;31.34
65359;BME280;52491;45.900;6.346;2023-04-01T03:39:46;93306.16;;;23.36;31.19
65359;BME280;52491;45.900;6.346;2023-04-01T03:42:12;93299.75;;;23.37;31.06
65359;BME280;52491;45.900;6.346;2023-04-01T03:44:37;93306.41;;;23.39;31.18
65359;BME280;52491;45.900;6.346;2023-04-01T03:47:03;93326.59;;;23.40;31.15
65359;BME280;52491;45.900;6.346;2023-04-01T03:49:28;93318.63;;;23.40;31.13
65359;BME280;52491;45.900;6.346;2023-04-01T03:51:54;93319.41;;;23.41;31.20
65359;BME280;52491;45.900;6.346;2023-04-01T03:54:20;93324.47;;;23.42;31.29
65359;BME280;52491;45.900;6.346;2023-04-01T03:56:46;93318.06;;;23.43;31.20
65359;BME280;52491;45.900;6.346;2023-04-01T03:59:12;93310.88;;;23.44;31.17
65359;BME280;52491;45.900;6.346;2023-04-01T04:01:37;93302.91;;;23.44;31.21
65359;BME280;52491;45.900;6.346;2023-04-01T04:04:03;93301.06;;;23.44;31.15
65359;BME280;52491;45.900;6.346;2023-04-01T04:06:29;93295.75;;;23.44;31.23
65359;BME280;52491;45.900;6.346;2023-04-01T04:08:55;93286.69;;;23.45;31.11
65359;BME280;52491;45.900;6.346;2023-04-01T04:11:21;93281.38;;;23.45;31.24
65359;BME280;52491;45.900;6.346;2023-04-01T04:13:48;93282.16;;;23.46;31.02
65359;BME280;52491;45.900;6.346;2023-04-01T04:16:16;93275.78;;;23.47;31.07
65359;BME280;52491;45.900;6.346;2023-04-01T04:18:41;93281.91;;;23.48;31.05
65359;BME280;52491;45.900;6.346;2023-04-01T04:21:12;93280.81;;;23.49;30.85
65359;BME280;52491;45.900;6.346;2023-04-01T04:23:37;93290.38;;;23.50;31.13
65359;BME280;52491;45.900;6.346;2023-04-01T04:26:05;93290.38;;;23.50;31.04
65359;BME280;52491;45.900;6.346;2023-04-01T04:28:32;93297.31;;;23.51;31.17
65359;BME280;52491;45.900;6.346;2023-04-01T04:30:58;93300.78;;;23.51;30.91
65359;BME280;52491;45.900;6.346;2023-04-01T04:33:24;93300.78;;;23.51;31.00
65359;BME280;52491;45.900;6.346;2023-04-01T04:35:51;93314.88;;;23.52;31.14
65359;BME280;52491;45.900;6.346;2023-04-01T04:38:16;93311.41;;;23.51;31.00
65359;BME280;52491;45.900;6.346;2023-04-01T04:40:43;93309.53;;;23.52;30.97
65359;BME280;52491;45.900;6.346;2023-04-01T04:43:14;93316.47;;;23.53;30.97
65359;BME280;52491;45.900;6.346;2023-04-01T04:45:40;93315.66;;;23.52;31.14
65359;BME280;52491;45.900;6.346;2023-04-01T04:48:10;93316.47;;;23.53;31.02
65359;BME280;52491;45.900;6.346;2023-04-01T04:50:40;93312.75;;;23.54;31.01
65359;BME280;52491;45.900;6.346;2023-04-01T04:53:05;93318.06;;;23.54;31.08
65359;BME280;52491;45.900;6.346;2023-04-01T04:55:31;93312.75;;;23.54;30.91
65359;BME280;52491;45.900;6.346;2023-04-01T04:57:56;93294.13;;;23.54;30.96
65359;BME280;52491;45.900;6.346;2023-04-01T05:00:22;93315.41;;;23.54;30.80
65359;BME280;52491;45.900;6.346;2023-04-01T05:02:48;93324.47;;;23.53;30.96
65359;BME280;52491;45.900;6.346;2023-04-01T05:05:13;93327.13;;;23.53;31.03
65359;BME280;52491;45.900;6.346;2023-04-01T05:07:39;93335.09;;;23.48;31.08
65359;BME280;52491;45.900;6.346;2023-04-01T05:10:05;93329.25;;;23.40;31.11
65359;BME280;52491;45.900;6.346;2023-04-01T05:12:31;93332.19;;;23.39;31.33
65359;BME280;52491;45.900;6.346;2023-04-01T05:14:58;93340.19;;;23.39;31.19
65359;BME280;52491;45.900;6.346;2023-04-01T05:17:24;93343.09;;;23.37;31.27
65359;BME280;52491;45.900;6.346;2023-04-01T05:19:50;93348.41;;;23.37;31.31
65359;BME280;52491;45.900;6.346;2023-04-01T05:22:15;93359.06;;;23.37;31.08
65359;BME280;52491;45.900;6.346;2023-04-01T05:24:41;93364.91;;;23.39;31.10
65359;BME280;52491;45.900;6.346;2023-04-01T05:27:07;93359.84;;;23.38;31.29
65359;BME280;52491;45.900;6.346;2023-04-01T05:29:32;93351.56;;;23.50;30.96
65359;BME280;52491;45.900;6.346;2023-04-01T05:31:58;93360.09;;;23.52;31.07
65359;BME280;52491;45.900;6.346;2023-04-01T05:34:23;93357.44;;;23.52;30.71
65359;BME280;52491;45.900;6.346;2023-04-01T05:36:49;93352.91;;;23.52;30.66
65359;BME280;52491;45.900;6.346;2023-04-01T05:39:15;93365.16;;;23.53;30.91
65359;BME280;52491;45.900;6.346;2023-04-01T05:41:41;93355.03;;;23.55;31.18
65359;BME280;52491;45.900;6.346;2023-04-01T05:44:10;93348.66;;;23.56;31.22
65359;BME280;52491;45.900;6.346;2023-04-01T05:46:37;93346.78;;;23.57;30.95
65359;BME280;52491;45.900;6.346;2023-04-01T05:49:03;93355.56;;;23.57;30.98
65359;BME280;52491;45.900;6.346;2023-04-01T05:51:28;93346.78;;;23.57;31.09
65359;BME280;52491;45.900;6.346;2023-04-01T05:53:54;93351.84;;;23.58;31.01
65359;BME280;52491;45.900;6.346;2023-04-01T05:56:20;93355.31;;;23.59;31.06
65359;BME280;52491;45.900;6.346;2023-04-01T05:58:50;93364.88;;;23.60;31.01
65359;BME280;52491;45.900;6.346;2023-04-01T06:01:16;93364.06;;;23.59;30.83
65359;BME280;52491;45.900;6.346;2023-04-01T06:03:42;93365.94;;;23.59;30.90
65359;BME280;52491;45.900;6.346;2023-04-01T06:06:15;93380.28;;;23.58;31.04
65359;BME280;52491;45.900;6.346;2023-04-01T06:08:41;93372.34;;;23.37;31.22
65359;BME280;52491;45.900;6.346;2023-04-01T06:11:27;93380.09;;;23.29;31.37
65359;BME280;52491;45.900;6.346;2023-04-01T06:19:50;93380.63;;;23.36;31.22
65359;BME280;52491;45.900;6.346;2023-04-01T06:22:44;93386.47;;;23.28;31.47
65359;BME280;52491;45.900;6.346;2023-04-01T06:39:56;93376.38;;;23.09;31.82
65359;BME280;52491;45.900;6.346;2023-04-01T06:50:52;93395.78;;;23.15;31.80
65359;BME280;52491;45.900;6.346;2023-04-01T06:56:02;93400.56;;;23.18;31.80
65359;BME280;52491;45.900;6.346;2023-04-01T06:58:35;93397.09;;;23.17;31.94
65359;BME280;52491;45.900;6.346;2023-04-01T07:01:08;93393.13;;;23.10;32.00
65359;BME280;52491;45.900;6.346;2023-04-01T07:03:55;93388.88;;;23.09;31.97
65359;BME280;52491;45.900;6.346;2023-04-01T07:08:59;93397.91;;;23.18;31.74
65359;BME280;52491;45.900;6.346;2023-04-01T07:11:31;93401.09;;;23.10;32.01
65359;BME280;52491;45.900;6.346;2023-04-01T07:14:23;93402.44;;;23.22;31.90
65359;BME280;52491;45.900;6.346;2023-04-01T07:17:11;93410.66;;;23.26;31.87
65359;BME280;52491;45.900;6.346;2023-04-01T07:19:51;93406.94;;;23.12;32.22
65359;BME280;52491;45.900;6.346;2023-04-01T07:22:34;93399.50;;;23.24;31.94
65359;BME280;52491;45.900;6.346;2023-04-01T07:25:25;93399.25;;;23.26;31.85
65359;BME280;52491;45.900;6.346;2023-04-01T07:27:56;93405.59;;;23.24;31.91
65359;BME280;52491;45.900;6.346;2023-04-01T07:30:24;93403.47;;;23.21;31.84
65359;BME280;52491;45.900;6.346;2023-04-01T07:33:00;93399.50;;;23.14;32.14
65359;BME280;52491;45.900;6.346;2023-04-01T07:35:38;93393.13;;;23.25;31.92
65359;BME280;52491;45.900;6.346;2023-04-01T07:41:08;93397.38;;;23.26;32.01
65359;BME280;52491;45.900;6.346;2023-04-01T07:54:42;93431.69;;;23.17;31.47
65359;BME280;52491;45.900;6.346;2023-04-01T07:57:19;93437.28;;;23.31;31.49
65359;BME280;52491;45.900;6.346;2023-04-01T07:59:58;93445.25;;;23.36;31.33
65359;BME280;52491;45.900;6.346;2023-04-01T08:02:28;93447.91;;;23.36;31.34
65359;BME280;52491;45.900;6.346;2023-04-01T08:10:51;93464.13;;;23.24;31.60
65359;BME280;52491;45.900;6.346;2023-04-01T08:13:25;93463.31;;;23.24;31.60
65359;BME280;52491;45.900;6.346;2023-04-01T08:16:31;93461.19;;;23.26;31.72
65359;BME280;52491;45.900;6.346;2023-04-01T08:19:28;93455.09;;;23.26;31.90
65359;BME280;52491;45.900;6.346;2023-04-01T08:21:58;93449.50;;;23.27;31.90
65359;BME280;52491;45.900;6.346;2023-04-01T08:24:42;93447.91;;;23.26;31.91
65359;BME280;52491;45.900;6.346;2023-04-01T08:27:31;93445.00;;;23.28;32.00
65359;BME280;52491;45.900;6.346;2023-04-01T08:30:15;93434.84;;;23.24;32.12
65359;BME280;52491;45.900;6.346;2023-04-01T08:32:47;93428.22;;;23.22;32.03
65359;BME280;52491;45.900;6.346;2023-04-01T08:37:50;93434.34;;;23.22;32.08
65359;BME280;52491;45.900;6.346;2023-04-01T09:09:02;93427.41;;;23.21;33.54
65359;BME280;52491;45.900;6.346;2023-04-01T09:11:44;93413.88;;;23.23;33.51
65359;BME280;52491;45.900;6.346;2023-04-01T09:14:58;93420.50;;;23.26;33.67
65359;BME280;52491;45.900;6.346;2023-04-01T09:28:20;93424.75;;;23.27;33.42
65359;BME280;52491;45.900;6.346;2023-04-01T09:44:36;93392.84;;;23.37;33.60
65359;BME280;52491;45.900;6.346;2023-04-01T09:56:13;93385.13;;;23.40;33.75
65359;BME280;52491;45.900;6.346;2023-04-01T10:01:43;93365.16;;;23.38;33.77
65359;BME280;52491;45.900;6.346;2023-04-01T10:29:03;93308.78;;;23.41;33.50
65359;BME280;52491;45.900;6.346;2023-04-01T10:32:04;93305.31;;;23.40;33.47
65359;BME280;52491;45.900;6.346;2023-04-01T10:43:24;93304.78;;;23.43;33.02
65359;BME280;52491;45.900;6.346;2023-04-01T10:54:30;93311.41;;;23.46;33.92
65359;BME280;52491;45.900;6.346;2023-04-01T11:00:38;93315.97;;;23.40;34.19
65359;BME280;52491;45.900;6.346;2023-04-01T11:17:48;93336.16;;;23.52;33.83
65359;BME280;52491;45.900;6.346;2023-04-01T11:26:21;93322.59;;;23.48;34.15
65359;BME280;52491;45.900;6.346;2023-04-01T11:34:20;93305.84;;;23.53;34.65
65359;BME280;52491;45.900;6.346;2023-04-01T11:37:27;93298.09;;;23.51;35.50
65359;BME280;52491;45.900;6.346;2023-04-01T11:45:36;93307.97;;;23.51;35.78
65359;BME280;52491;45.900;6.346;2023-04-01T11:48:31;93300.78;;;23.51;36.26
65359;BME280;52491;45.900;6.346;2023-04-01T11:56:59;93289.59;;;23.54;36.26
65359;BME280;52491;45.900;6.346;2023-04-01T11:59:42;93290.91;;;23.57;36.68
65359;BME280;52491;45.900;6.346;2023-04-01T12:07:43;93283.16;;;23.60;37.36
65359;BME280;52491;45.900;6.346;2023-04-01T12:10:25;93282.13;;;23.61;37.13
65359;BME280;52491;45.900;6.346;2023-04-01T12:13:29;93274.63;;;23.63;37.49
65359;BME280;52491;45.900;6.346;2023-04-01T12:17:20;93256.31;;;23.62;37.80
65359;BME280;52491;45.900;6.346;2023-04-01T12:19:12;93253.34;;;23.63;37.86
65359;BME280;52491;45.900;6.346;2023-04-01T12:22:09;93257.34;;;23.66;37.85
65359;BME280;52491;45.900;6.346;2023-04-01T12:25:07;93251.75;;;23.67;37.55
65359;BME280;52491;45.900;6.346;2023-04-01T12:28:00;93243.47;;;23.69;37.25
65359;BME280;52491;45.900;6.346;2023-04-01T12:41:32;93225.41;;;23.76;37.73
65359;BME280;52491;45.900;6.346;2023-04-01T12:52:15;93193.97;;;23.78;37.74
65359;BME280;52491;45.900;6.346;2023-04-01T12:57:35;93194.03;;;23.58;37.75
65359;BME280;52491;45.900;6.346;2023-04-01T13:00:35;93194.56;;;23.60;37.38
65359;BME280;52491;45.900;6.346;2023-04-01T13:03:31;93185.81;;;23.59;37.70
65359;BME280;52491;45.900;6.346;2023-04-01T13:14:50;93175.41;;;23.63;36.71
65359;BME280;52491;45.900;6.346;2023-04-01T13:28:56;93164.50;;;23.64;36.70
65359;BME280;52491;45.900;6.346;2023-04-01T13:37:04;93148.53;;;23.59;37.79
65359;BME280;52491;45.900;6.346;2023-04-01T13:42:24;93142.94;;;23.61;37.61
65359;BME280;52491;45.900;6.346;2023-04-01T13:47:50;93134.13;;;23.65;36.79
65359;BME280;52491;45.900;6.346;2023-04-01T13:53:20;93136.53;;;23.67;37.11
65359;BME280;52491;45.900;6.346;2023-04-01T13:58:53;93130.41;;;23.66;37.73
65359;BME280;52491;45.900;6.346;2023-04-01T14:18:26;93076.91;;;23.73;37.88
65359;BME280;52491;45.900;6.346;2023-04-01T14:32:45;93060.44;;;23.61;34.22
65359;BME280;52491;45.900;6.346;2023-04-01T14:43:03;93049.28;;;23.64;35.56
65359;BME280;52491;45.900;6.346;2023-04-01T14:48:50;93051.13;;;23.24;32.62
65359;BME280;52491;45.900;6.346;2023-04-01T14:54:13;93052.31;;;23.03;31.84
65359;BME280;52491;45.900;6.346;2023-04-01T14:57:14;93069.34;;;22.91;31.55
65359;BME280;52491;45.900;6.346;2023-04-01T14:59:48;93072.56;;;22.83;31.29
65359;BME280;52491;45.900;6.346;2023-04-01T15:05:30;93061.19;;;22.67;31.22
65359;BME280;52491;45.900;6.346;2023-04-01T15:08:18;93058.03;;;22.60;31.37
65359;BME280;52491;45.900;6.346;2023-04-01T15:16:13;93052.75;;;22.55;31.48
65359;BME280;52491;45.900;6.346;2023-04-01T15:22:01;93053.22;;;22.67;31.67
65359;BME280;52491;45.900;6.346;2023-04-01T15:28:16;93039.19;;;22.56;32.07
65359;BME280;52491;45.900;6.346;2023-04-01T15:33:28;93032.53;;;22.64;32.34
65359;BME280;52491;45.900;6.346;2023-04-01T15:36:19;93033.81;;;22.72;32.59
65359;BME280;52491;45.900;6.346;2023-04-01T15:39:09;93031.41;;;22.75;32.57
65359;BME280;52491;45.900;6.346;2023-04-01T15:44:46;93035.63;;;22.82;32.97
65359;BME280;52491;45.900;6.346;2023-04-01T15:50:23;93030.56;;;22.85;33.11
65359;BME280;52491;45.900;6.346;2023-04-01T15:53:07;93032.94;;;22.87;33.29
65359;BME280;52491;45.900;6.346;2023-04-01T15:55:41;93027.63;;;22.87;33.53
65359;BME280;52491;45.900;6.346;2023-04-01T16:04:00;93027.09;;;22.90;33.39
65359;BME280;52491;45.900;6.346;2023-04-01T16:12:09;93055.78;;;22.93;33.58
65359;BME280;52491;45.900;6.346;2023-04-01T16:17:29;93094.59;;;22.94;33.29
65359;BME280;52491;45.900;6.346;2023-04-01T16:22:54;93093.78;;;22.93;34.25
65359;BME280;52491;45.900;6.346;2023-04-01T16:25:38;93101.22;;;22.96;34.39
65359;BME280;52491;45.900;6.346;2023-04-01T16:33:44;93108.41;;;23.01;34.96
65359;BME280;52491;45.900;6.346;2023-04-01T16:36:33;93119.28;;;23.05;35.35
65359;BME280;52491;45.900;6.346;2023-04-01T16:41:36;93120.09;;;23.05;35.58
65359;BME280;52491;45.900;6.346;2023-04-01T16:44:23;93136.56;;;23.07;35.93
65359;BME280;52491;45.900;6.346;2023-04-01T16:46:56;93140.00;;;23.08;35.93
65359;BME280;52491;45.900;6.346;2023-04-01T16:49:36;93144.53;;;23.07;36.10
65359;BME280;52491;45.900;6.346;2023-04-01T16:54:40;93148.50;;;23.10;36.63
65359;BME280;52491;45.900;6.346;2023-04-01T17:00:14;93164.47;;;23.10;36.58
65359;BME280;52491;45.900;6.346;2023-04-01T17:05:11;93170.31;;;23.07;36.07
65359;BME280;52491;45.900;6.346;2023-04-01T17:15:33;93194.78;;;23.04;36.92
65359;BME280;52491;45.900;6.346;2023-04-01T17:18:14;93194.00;;;23.03;37.13
65359;BME280;52491;45.900;6.346;2023-04-01T17:23:33;93216.31;;;23.02;37.35
65359;BME280;52491;45.900;6.346;2023-04-01T17:26:17;93217.13;;;23.03;37.17
65359;BME280;52491;45.900;6.346;2023-04-01T17:29:01;93209.41;;;23.01;36.90
65359;BME280;52491;45.900;6.346;2023-04-01T17:34:35;93226.94;;;23.02;36.75
65359;BME280;52491;45.900;6.346;2023-04-01T17:47:26;93227.78;;;23.03;36.88
65359;BME280;52491;45.900;6.346;2023-04-01T17:50:22;93232.81;;;22.99;36.87
65359;BME280;52491;45.900;6.346;2023-04-01T17:58:22;93234.69;;;22.98;37.41
65359;BME280;52491;45.900;6.346;2023-04-01T18:01:19;93243.44;;;22.99;37.51
65359;BME280;52491;45.900;6.346;2023-04-01T18:04:43;93246.09;;;22.99;37.51
65359;BME280;52491;45.900;6.346;2023-04-01T18:09:56;93249.56;;;22.99;37.65
65359;BME280;52491;45.900;6.346;2023-04-01T18:21:34;93244.53;;;22.98;38.06
65359;BME280;52491;45.900;6.346;2023-04-01T18:24:28;93254.38;;;22.97;37.98
65359;BME280;52491;45.900;6.346;2023-04-01T18:27:15;93255.69;;;23.00;38.02
65359;BME280;52491;45.900;6.346;2023-04-01T18:29:49;93259.69;;;22.97;38.11
65359;BME280;52491;45.900;6.346;2023-04-01T18:32:41;93256.22;;;22.97;38.13
65359;BME280;52491;45.900;6.346;2023-04-01T18:35:47;93260.72;;;22.96;38.23
65359;BME280;52491;45.900;6.346;2023-04-01T18:38:33;93259.94;;;22.96;38.30
65359;BME280;52491;45.900;6.346;2023-04-01T18:41:28;93260.97;;;22.95;38.17
65359;BME280;52491;45.900;6.346;2023-04-01T18:44:12;93263.88;;;22.93;38.12
65359;BME280;52491;45.900;6.346;2023-04-01T18:46:48;93259.66;;;22.92;38.08
65359;BME280;52491;45.900;6.346;2023-04-01T18:49:25;93267.38;;;22.94;38.21
65359;BME280;52491;45.900;6.346;2023-04-01T18:51:57;93261.50;;;22.92;38.58
65359;BME280;52491;45.900;6.346;2023-04-01T18:54:33;93277.47;;;22.92;38.21
65359;BME280;52491;45.900;6.346;2023-04-01T18:57:14;93270.03;;;22.94;38.31
65359;BME280;52491;45.900;6.346;2023-04-01T19:00:04;93263.38;;;22.91;38.17
65359;BME280;52491;45.900;6.346;2023-04-01T19:02:45;93275.34;;;22.89;38.41
65359;BME280;52491;45.900;6.346;2023-04-01T19:05:33;93271.91;;;22.88;38.24
65359;BME280;52491;45.900;6.346;2023-04-01T19:08:33;93271.06;;;22.88;38.22
65359;BME280;52491;45.900;6.346;2023-04-01T19:11:20;93268.69;;;22.86;38.20
65359;BME280;52491;45.900;6.346;2023-04-01T19:14:20;93271.34;;;22.86;38.00
65359;BME280;52491;45.900;6.346;2023-04-01T19:19:53;93259.94;;;22.86;38.20
65359;BME280;52491;45.900;6.346;2023-04-01T19:25:55;93265.78;;;22.83;37.82
65359;BME280;52491;45.900;6.346;2023-04-01T19:28:55;93272.69;;;22.84;37.58
65359;BME280;52491;45.900;6.346;2023-04-01T19:40:18;93281.16;;;22.91;37.39
65359;BME280;52491;45.900;6.346;2023-04-01T19:43:01;93286.22;;;22.92;37.51
65359;BME280;52491;45.900;6.346;2023-04-01T19:45:59;93278.00;;;22.94;37.22
65359;BME280;52491;45.900;6.346;2023-04-01T19:48:48;93278.78;;;22.94;37.31
65359;BME280;52491;45.900;6.346;2023-04-01T19:54:16;93278.00;;;22.99;36.90
65359;BME280;52491;45.900;6.346;2023-04-01T19:57:05;93276.66;;;23.01;36.54
65359;BME280;52491;45.900;6.346;2023-04-01T20:05:16;93272.97;;;23.03;35.91
65359;BME280;52491;45.900;6.346;2023-04-01T20:07:52;93275.63;;;23.03;35.87
65359;BME280;52491;45.900;6.346;2023-04-01T20:10:51;93273.75;;;23.03;35.91
65359;BME280;52491;45.900;6.346;2023-04-01T20:14:09;93275.59;;;23.08;36.64
65359;BME280;52491;45.900;6.346;2023-04-01T20:16:12;93280.41;;;23.11;37.29
65359;BME280;52491;45.900;6.346;2023-04-01T20:18:54;93278.25;;;23.13;37.53
65359;BME280;52491;45.900;6.346;2023-04-01T20:21:42;93270.56;;;23.16;37.47
65359;BME280;52491;45.900;6.346;2023-04-01T20:26:42;93275.88;;;23.16;37.35
65359;BME280;52491;45.900;6.346;2023-04-01T20:29:35;93281.97;;;23.17;37.46
65359;BME280;52491;45.900;6.346;2023-04-01T20:35:14;93284.09;;;23.15;37.65
65359;BME280;52491;45.900;6.346;2023-04-01T20:37:56;93279.56;;;23.15;37.50
65359;BME280;52491;45.900;6.346;2023-04-01T20:40:40;93285.69;;;23.16;37.51
65359;BME280;52491;45.900;6.346;2023-04-01T20:46:23;93289.66;;;23.13;37.79
65359;BME280;52491;45.900;6.346;2023-04-01T20:51:43;93285.44;;;23.12;37.76
65359;BME280;52491;45.900;6.346;2023-04-01T21:00:00;93279.56;;;23.10;37.90
65359;BME280;52491;45.900;6.346;2023-04-01T21:02:47;93275.34;;;23.09;37.75
65359;BME280;52491;45.900;6.346;2023-04-01T21:08:17;93269.22;;;23.09;37.73
65359;BME280;52491;45.900;6.346;2023-04-01T21:11:03;93265.78;;;23.08;37.84
65359;BME280;52491;45.900;6.346;2023-04-01T21:29:53;93286.50;;;23.11;37.74
65359;BME280;52491;45.900;6.346;2023-04-01T21:32:51;93294.19;;;23.13;37.48
65359;BME280;52491;45.900;6.346;2023-04-01T21:36:01;93287.31;;;23.12;37.45
65359;BME280;52491;45.900;6.346;2023-04-01T21:41:22;93285.44;;;23.12;37.15
65359;BME280;52491;45.900;6.346;2023-04-01T21:50:07;93282.53;;;23.09;37.27
65359;BME280;52491;45.900;6.346;2023-04-01T21:53:08;93280.41;;;23.11;37.13